Time;durP1;ratioP1;P1;durP2;ratioP2;P2;SDS_P1;SDS_P2;PMS_P1;PMS_P2;Temp;Humidity;BMP_temperature;BMP_pressure;BME280_temperature;BME280_humidity;BME280_pressure;Samples;Min_cycle;Max_cycle;Signal;HPM_P1;HPM_P2
2022/01/25 00:28:47;;;;;;;579.65;216.35;;;-7.50;99.90;;;;;;5055259;28;20044;-54
2022/01/25 00:31:13;;;;;;;594.00;220.40;;;-7.50;99.90;;;;;;5055482;28;20094;-53
2022/01/25 00:33:51;;;;;;;642.97;241.32;;;-7.50;99.90;;;;;;5055167;28;20108;-54
2022/01/25 00:36:20;;;;;;;547.53;199.13;;;-7.50;99.90;;;;;;5055035;28;20402;-54
2022/01/25 00:38:47;;;;;;;552.08;201.95;;;-7.50;99.90;;;;;;5055271;28;20037;-54
2022/01/25 00:41:13;;;;;;;701.22;279.92;;;-7.40;99.90;;;;;;5055277;28;20029;-54
2022/01/25 00:43:40;;;;;;;657.55;257.33;;;-7.30;99.90;;;;;;5054894;28;20025;-54
2022/01/25 00:46:09;;;;;;;641.75;255.50;;;-7.30;99.90;;;;;;5055021;28;20075;-53
2022/01/25 00:54:01;;;;;;;543.25;197.68;;;-7.50;99.90;;;;;;5054926;28;20032;-54
2022/01/25 00:56:32;;;;;;;472.02;160.15;;;-7.60;99.90;;;;;;5055016;28;20021;-54
2022/01/25 00:59:00;;;;;;;411.50;146.90;;;-7.40;99.90;;;;;;5055018;28;20493;-53
2022/01/25 01:01:27;;;;;;;456.05;160.02;;;-7.30;99.90;;;;;;5054764;28;20033;-54
2022/01/25 01:03:53;;;;;;;498.55;180.70;;;-7.30;99.90;;;;;;5054502;28;20237;-54
2022/01/25 01:06:20;;;;;;;484.67;171.00;;;-7.30;99.90;;;;;;5054683;28;20044;-54
2022/01/25 01:08:47;;;;;;;590.20;215.35;;;-7.20;99.90;;;;;;5054664;28;20033;-54
2022/01/25 01:11:22;;;;;;;611.33;222.18;;;-7.20;99.90;;;;;;5054543;28;20035;-54
2022/01/25 01:14:02;;;;;;;554.20;194.50;;;-7.20;99.90;;;;;;5054568;28;20025;-54
2022/01/25 01:16:46;;;;;;;546.25;186.23;;;-7.20;99.90;;;;;;5054591;28;20029;-54
2022/01/25 01:43:31;;;;;;;417.20;146.98;;;-8.10;99.90;;;;;;5054062;28;20037;-53
2022/01/25 01:46:20;;;;;;;397.33;138.73;;;-8.10;99.90;;;;;;5054246;28;20033;-54
2022/01/25 01:48:53;;;;;;;389.60;138.57;;;-8.10;99.90;;;;;;5054258;28;20083;-54
2022/01/25 01:51:33;;;;;;;420.00;147.70;;;-8.10;99.90;;;;;;5054042;28;20040;-54
2022/01/25 01:54:01;;;;;;;401.17;137.30;;;-8.10;99.90;;;;;;5054168;28;20068;-53
2022/01/25 01:56:27;;;;;;;387.67;140.00;;;-8.10;99.90;;;;;;5054246;28;20067;-54
2022/01/25 01:58:56;;;;;;;409.38;146.15;;;-8.00;99.90;;;;;;5054078;28;20368;-54
2022/01/25 02:01:24;;;;;;;417.85;143.77;;;-8.10;99.90;;;;;;5054145;28;20029;-54
2022/01/25 02:03:51;;;;;;;430.48;155.23;;;-8.20;99.90;;;;;;5054089;28;20040;-54
2022/01/25 02:06:18;;;;;;;388.77;140.90;;;-8.10;99.90;;;;;;5053929;28;20029;-53
2022/01/25 02:08:44;;;;;;;402.52;145.80;;;-8.20;99.90;;;;;;5053986;28;20037;-53
2022/01/25 02:11:10;;;;;;;409.08;144.45;;;-8.30;99.90;;;;;;5053959;28;20040;-54
2022/01/25 02:13:39;;;;;;;341.48;122.13;;;-8.30;99.90;;;;;;5053771;28;20032;-54
2022/01/25 02:16:09;;;;;;;395.27;138.55;;;-8.30;99.90;;;;;;5054523;28;20343;-54
2022/01/25 02:24:05;;;;;;;510.25;167.50;;;-8.20;99.90;;;;;;5077701;28;20032;-53
2022/01/25 02:26:31;;;;;;;455.88;156.57;;;-8.00;99.90;;;;;;5077827;28;20089;-53
2022/01/25 02:28:57;;;;;;;587.15;187.05;;;-8.00;99.90;;;;;;5077645;28;20031;-54
2022/01/25 02:31:23;;;;;;;599.90;190.05;;;-8.20;99.90;;;;;;5076809;28;20185;-53
2022/01/25 02:33:49;;;;;;;563.35;177.35;;;-8.10;99.90;;;;;;5057487;28;20537;-54
2022/01/25 02:36:28;;;;;;;424.92;146.23;;;-8.20;99.90;;;;;;5057636;28;20052;-54
2022/01/25 02:38:55;;;;;;;408.70;136.60;;;-8.30;99.90;;;;;;5057441;28;20437;-53
2022/01/25 02:41:22;;;;;;;431.35;141.93;;;-8.30;99.90;;;;;;5057505;28;20028;-53
2022/01/25 02:43:50;;;;;;;456.95;144.82;;;-8.40;99.90;;;;;;5057158;28;20490;-54
2022/01/25 02:48:54;;;;;;;372.65;126.45;;;-8.60;99.90;;;;;;5057323;28;20033;-53
2022/01/25 02:51:23;;;;;;;489.45;147.07;;;-8.60;99.90;;;;;;5057137;28;20035;-54
2022/01/25 02:53:50;;;;;;;472.65;144.73;;;-8.50;99.90;;;;;;5057260;28;20029;-53
2022/01/25 02:56:17;;;;;;;448.90;145.63;;;-8.50;99.90;;;;;;5057200;28;20108;-54
2022/01/25 02:58:44;;;;;;;434.95;144.93;;;-8.50;99.90;;;;;;5057148;28;20033;-54
2022/01/25 03:01:10;;;;;;;406.92;134.93;;;-8.50;99.90;;;;;;5057093;28;20044;-53
2022/01/25 03:03:37;;;;;;;387.55;133.93;;;-8.50;99.90;;;;;;5056875;28;20108;-53
2022/01/25 03:06:04;;;;;;;372.75;128.85;;;-8.60;99.90;;;;;;5056618;28;20041;-54
2022/01/25 03:08:31;;;;;;;425.75;142.88;;;-8.60;99.90;;;;;;5057167;28;20064;-53
2022/01/25 03:10:57;;;;;;;464.55;149.02;;;-8.70;99.90;;;;;;5056791;28;20319;-53
2022/01/25 03:13:29;;;;;;;486.08;159.82;;;-8.60;99.90;;;;;;5053754;28;20502;-53
2022/01/25 03:16:16;;;;;;;523.25;167.80;;;-8.70;99.90;;;;;;5056831;28;20025;-53
2022/01/25 03:18:44;;;;;;;428.98;144.43;;;-8.50;99.90;;;;;;5064004;28;20028;-54
2022/01/25 03:21:21;;;;;;;396.30;136.20;;;-8.50;99.90;;;;;;5076609;28;20033;-53
2022/01/25 03:23:50;;;;;;;410.88;140.48;;;-8.60;99.90;;;;;;5076746;28;20036;-54
2022/01/25 03:26:16;;;;;;;413.77;142.02;;;-8.50;99.90;;;;;;5076636;28;20033;-54
2022/01/25 03:28:42;;;;;;;407.65;140.38;;;-8.50;99.90;;;;;;5076623;28;20075;-54
2022/01/25 03:31:08;;;;;;;395.83;134.65;;;-8.50;99.90;;;;;;5076482;28;20102;-53
2022/01/25 03:33:35;;;;;;;385.45;133.52;;;-8.60;99.90;;;;;;5057622;28;20021;-53
2022/01/25 03:36:01;;;;;;;379.67;134.15;;;-8.70;99.90;;;;;;5056349;28;20049;-53
2022/01/25 03:38:27;;;;;;;387.52;136.63;;;-8.80;99.90;;;;;;5056418;28;20391;-53
2022/01/25 03:40:53;;;;;;;353.17;125.30;;;-8.80;99.90;;;;;;5056378;28;20033;-53
2022/01/25 03:43:19;;;;;;;469.42;151.60;;;-8.80;99.90;;;;;;5056225;28;20025;-53
2022/01/25 03:45:57;;;;;;;455.80;148.35;;;-8.90;99.90;;;;;;5056395;28;20040;-53
2022/01/25 03:50:51;;;;;;;448.05;143.25;;;-8.80;99.90;;;;;;5056021;28;20029;-53
2022/01/25 03:53:19;;;;;;;381.48;127.93;;;-8.90;99.90;;;;;;5056282;28;20165;-53
2022/01/25 03:55:46;;;;;;;331.25;114.45;;;-8.90;99.90;;;;;;5055995;28;20021;-53
2022/01/25 03:58:13;;;;;;;346.02;119.15;;;-9.00;99.90;;;;;;5056094;28;20379;-53
2022/01/25 04:00:40;;;;;;;290.98;106.13;;;-9.10;99.90;;;;;;5056060;28;20123;-53
2022/01/25 04:03:14;;;;;;;325.20;114.13;;;-9.10;99.90;;;;;;5055800;28;20060;-53
2022/01/25 04:08:11;;;;;;;398.10;141.43;;;-8.70;99.90;;;;;;5055830;28;20136;-53
2022/01/25 04:10:37;;;;;;;388.42;139.52;;;-8.70;99.90;;;;;;5055771;28;20043;-54
2022/01/25 04:13:06;;;;;;;302.35;111.78;;;-8.80;99.90;;;;;;5051383;28;20025;-53
2022/01/25 04:15:32;;;;;;;281.52;102.63;;;-9.00;99.90;;;;;;5035769;28;20022;-53
2022/01/25 04:18:13;;;;;;;283.05;104.60;;;-8.90;99.90;;;;;;5037176;28;20057;-54
2022/01/25 04:20:41;;;;;;;289.17;105.03;;;-8.90;99.90;;;;;;5055536;28;20103;-53
2022/01/25 04:25:52;;;;;;;447.40;153.38;;;-8.90;99.90;;;;;;5055390;28;20029;-53
2022/01/25 04:28:18;;;;;;;404.08;143.55;;;-8.90;99.90;;;;;;5055500;28;20382;-53
2022/01/25 04:30:44;;;;;;;385.38;136.98;;;-9.00;99.90;;;;;;5055739;28;20383;-53
2022/01/25 04:33:23;;;;;;;361.15;132.00;;;-8.90;99.90;;;;;;5054989;28;20037;-53
2022/01/25 04:36:24;;;;;;;310.80;119.57;;;-8.90;99.90;;;;;;5055208;28;20045;-53
2022/01/25 04:49:48;;;;;;;280.95;100.95;;;-8.90;99.90;;;;;;5054999;28;20029;-54
2022/01/25 04:52:18;;;;;;;321.00;113.63;;;-8.80;99.90;;;;;;5054913;28;20037;-54
2022/01/25 04:55:05;;;;;;;257.80;91.55;;;-8.80;99.90;;;;;;5055236;28;20033;-53
2022/01/25 05:00:11;;;;;;;330.40;118.25;;;-8.90;99.90;;;;;;5054867;28;20035;-53
2022/01/25 05:05:10;;;;;;;263.55;98.53;;;-9.20;99.90;;;;;;5054939;28;20056;-53
2022/01/25 05:07:49;;;;;;;258.73;94.43;;;-9.30;99.90;;;;;;5054463;28;20099;-53
2022/01/25 05:10:15;;;;;;;238.30;91.60;;;-9.30;99.90;;;;;;5054975;28;20025;-53
2022/01/25 05:12:51;;;;;;;289.58;100.38;;;-9.30;99.90;;;;;;5053247;28;20455;-53
2022/01/25 05:15:58;;;;;;;427.80;139.02;;;-9.30;99.90;;;;;;5034646;28;20096;-53
2022/01/25 05:23:24;;;;;;;327.50;117.05;;;-9.20;99.90;;;;;;5054456;28;20044;-54
2022/01/25 05:25:50;;;;;;;480.30;178.95;;;-9.10;99.90;;;;;;5054427;28;20426;-53
2022/01/25 05:28:16;;;;;;;456.25;181.00;;;-8.90;99.90;;;;;;5054400;28;20168;-53
2022/01/25 05:30:42;;;;;;;302.70;114.38;;;-8.90;99.90;;;;;;5054386;28;20489;-53
2022/01/25 05:33:08;;;;;;;272.33;106.65;;;-8.80;99.90;;;;;;5054136;28;20029;-53
2022/01/25 05:35:34;;;;;;;279.45;115.70;;;-8.90;99.90;;;;;;5054274;28;20100;-53
2022/01/25 05:38:00;;;;;;;286.15;110.03;;;-8.90;99.90;;;;;;5054184;28;20116;-53
2022/01/25 05:40:40;;;;;;;274.63;105.85;;;-9.00;99.90;;;;;;5054454;28;20025;-53
2022/01/25 05:44:01;;;;;;;268.77;105.33;;;-9.00;99.90;;;;;;5053993;28;20751;-53
2022/01/25 05:46:13;;;;;;;287.67;112.57;;;-9.10;99.90;;;;;;5054235;28;20348;-53
2022/01/25 05:48:39;;;;;;;264.88;105.75;;;-9.10;99.90;;;;;;5053978;28;20067;-53
2022/01/25 05:51:06;;;;;;;339.15;128.95;;;-8.90;99.90;;;;;;5054471;28;20025;-53
2022/01/25 05:53:32;;;;;;;601.08;204.95;;;-8.80;99.90;;;;;;5058349;28;20127;-53
2022/01/25 05:55:58;;;;;;;568.45;187.93;;;-8.80;99.90;;;;;;5058221;28;20032;-53
2022/01/25 05:58:25;;;;;;;781.35;269.73;;;-8.70;99.90;;;;;;5058152;28;20025;-53
2022/01/25 06:00:51;;;;;;;761.85;264.50;;;-8.80;99.90;;;;;;5058381;28;20033;-53
2022/01/25 06:03:17;;;;;;;690.83;249.80;;;-8.80;99.90;;;;;;5058129;28;20055;-53
2022/01/25 06:05:44;;;;;;;351.42;129.30;;;-8.70;99.90;;;;;;5058361;28;20029;-53
2022/01/25 06:08:11;;;;;;;326.88;128.52;;;-8.70;99.90;;;;;;5057964;28;20025;-53
2022/01/25 06:10:37;;;;;;;286.67;117.18;;;-8.70;99.90;;;;;;5057977;28;20053;-53
2022/01/25 06:13:04;;;;;;;249.48;99.75;;;-8.80;99.90;;;;;;5053631;28;20048;-53
2022/01/25 06:15:30;;;;;;;250.70;98.85;;;-8.80;99.90;;;;;;5038186;28;20068;-53
2022/01/25 06:17:56;;;;;;;250.82;96.75;;;-8.80;99.90;;;;;;5039359;28;20057;-53
2022/01/25 06:20:23;;;;;;;255.80;101.65;;;-8.70;99.90;;;;;;5045125;28;20516;-53
2022/01/25 06:22:50;;;;;;;302.13;115.22;;;-8.80;99.90;;;;;;5034351;28;20034;-53
2022/01/25 06:25:17;;;;;;;286.65;109.47;;;-8.90;99.90;;;;;;5039743;28;20029;-53
2022/01/25 06:27:44;;;;;;;279.17;103.10;;;-8.80;99.90;;;;;;5033708;28;20026;-54
2022/01/25 06:30:17;;;;;;;286.30;107.53;;;-8.90;99.90;;;;;;5029978;28;20029;-53
2022/01/25 06:32:45;;;;;;;281.42;108.38;;;-8.90;99.90;;;;;;5033035;28;20712;-53
2022/01/25 06:35:11;;;;;;;307.13;117.22;;;-8.90;99.90;;;;;;5029890;28;20077;-53
2022/01/25 06:37:37;;;;;;;338.27;120.05;;;-8.80;99.90;;;;;;5056010;28;20605;-54
2022/01/25 06:40:06;;;;;;;304.30;115.95;;;-8.80;99.90;;;;;;5056934;28;20025;-53
2022/01/25 06:42:33;;;;;;;292.20;110.53;;;-8.80;99.90;;;;;;5042232;28;20040;-54
2022/01/25 06:45:04;;;;;;;314.05;117.88;;;-8.80;99.90;;;;;;5054075;28;20032;-54
2022/01/25 06:47:30;;;;;;;326.40;121.22;;;-8.60;99.90;;;;;;5056305;28;20435;-53
2022/01/25 06:49:56;;;;;;;336.42;124.18;;;-8.70;99.90;;;;;;5055956;28;20032;-54
2022/01/25 06:52:23;;;;;;;333.52;122.68;;;-8.40;99.90;;;;;;5057347;28;20021;-54
2022/01/25 06:54:50;;;;;;;336.15;124.00;;;-7.90;99.90;;;;;;5057693;28;20022;-53
2022/01/25 06:57:17;;;;;;;366.77;137.90;;;-7.10;99.90;;;;;;5053727;28;20037;-54
2022/01/25 06:59:43;;;;;;;384.95;145.20;;;-6.40;99.90;;;;;;5048692;28;20025;-54
2022/01/25 07:02:09;;;;;;;392.77;148.30;;;-5.70;99.90;;;;;;5051881;28;20032;-54
2022/01/25 07:04:35;;;;;;;348.80;133.07;;;-5.20;99.90;;;;;;5052734;28;20035;-54
2022/01/25 07:07:01;;;;;;;365.88;143.13;;;-4.40;99.90;;;;;;5047901;28;20379;-54
2022/01/25 07:09:28;;;;;;;365.05;139.10;;;-4.20;99.90;;;;;;5043414;28;20033;-54
2022/01/25 07:11:54;;;;;;;368.65;135.48;;;-3.40;99.90;;;;;;5048740;28;20486;-54
2022/01/25 07:14:20;;;;;;;366.48;141.75;;;-3.00;99.90;;;;;;5045593;28;20045;-54
2022/01/25 07:16:46;;;;;;;374.55;145.27;;;-2.60;99.90;;;;;;5052827;28;20029;-54
2022/01/25 07:19:13;;;;;;;366.67;144.98;;;-2.40;99.10;;;;;;5051975;28;20030;-54
2022/01/25 07:21:39;;;;;;;374.45;147.02;;;-2.10;97.00;;;;;;5056865;28;20487;-54
2022/01/25 07:24:06;;;;;;;385.40;154.93;;;-2.20;98.30;;;;;;5056398;28;20020;-54
2022/01/25 07:26:32;;;;;;;395.83;160.73;;;-2.40;98.30;;;;;;5039034;28;20039;-54
2022/01/25 07:28:58;;;;;;;408.20;171.88;;;-2.40;97.60;;;;;;5049300;28;20472;-54
2022/01/25 07:31:24;;;;;;;388.88;162.68;;;-2.50;96.30;;;;;;5039759;28;20487;-54
2022/01/25 07:33:51;;;;;;;400.08;166.00;;;-1.50;97.90;;;;;;5057001;28;20024;-54
2022/01/25 07:36:17;;;;;;;387.48;157.82;;;-1.70;95.10;;;;;;5056764;28;20049;-54
2022/01/25 07:38:43;;;;;;;380.58;153.20;;;-1.30;95.30;;;;;;5056773;28;20544;-54
2022/01/25 07:41:08;;;;;;;395.63;164.73;;;-1.00;95.00;;;;;;5050402;28;20030;-54
2022/01/25 07:43:34;;;;;;;391.58;159.55;;;-1.10;93.00;;;;;;5048236;28;20093;-54
2022/01/25 07:46:04;;;;;;;402.63;167.23;;;-0.80;94.60;;;;;;5053052;28;20033;-54
2022/01/25 07:48:33;;;;;;;398.25;167.43;;;-0.40;93.90;;;;;;5054609;28;20029;-54
2022/01/25 07:50:59;;;;;;;358.58;155.43;;;0.10;93.80;;;;;;5056287;28;20036;-54
2022/01/25 07:53:25;;;;;;;379.70;161.10;;;1.00;86.80;;;;;;5042541;28;20025;-54
2022/01/25 07:55:51;;;;;;;357.73;155.32;;;1.00;88.80;;;;;;5054832;28;20489;-54
2022/01/25 07:58:17;;;;;;;364.17;158.57;;;-0.10;91.70;;;;;;5056512;28;20110;-54
2022/01/25 08:00:43;;;;;;;334.40;143.48;;;0.10;92.50;;;;;;5056555;28;20079;-54
2022/01/25 08:03:10;;;;;;;296.58;133.50;;;0.30;88.50;;;;;;5056095;28;20032;-54
2022/01/25 08:05:36;;;;;;;316.02;135.70;;;0.00;92.00;;;;;;5048865;28;20029;-54
2022/01/25 08:08:02;;;;;;;297.42;129.10;;;-0.20;92.70;;;;;;5036457;28;20529;-54
2022/01/25 08:10:28;;;;;;;306.40;124.45;;;0.20;91.50;;;;;;5042266;28;20094;-54
2022/01/25 08:12:54;;;;;;;275.50;112.90;;;1.60;84.20;;;;;;5052540;28;20025;-54
2022/01/25 08:15:24;;;;;;;267.38;113.10;;;1.60;76.00;;;;;;5053569;28;20029;-54
2022/01/25 08:17:50;;;;;;;306.08;121.70;;;1.40;75.70;;;;;;5051643;28;20382;-54
2022/01/25 08:20:16;;;;;;;289.38;121.28;;;0.20;90.30;;;;;;5056078;28;20036;-54
2022/01/25 08:22:44;;;;;;;276.80;117.10;;;-0.20;93.20;;;;;;5055575;28;20033;-54
2022/01/25 08:25:11;;;;;;;287.85;124.60;;;1.60;88.60;;;;;;5055040;28;20442;-54
2022/01/25 08:27:37;;;;;;;300.20;120.93;;;1.50;84.90;;;;;;5046399;28;20509;-54
2022/01/25 08:30:04;;;;;;;303.48;120.80;;;2.10;85.20;;;;;;5075731;28;20024;-55
2022/01/25 08:32:31;;;;;;;280.85;117.13;;;2.40;74.50;;;;;;5064909;28;20025;-55
2022/01/25 08:34:58;;;;;;;285.48;114.07;;;2.20;74.60;;;;;;5043440;28;20038;-55
2022/01/25 08:37:24;;;;;;;315.40;121.50;;;2.80;74.30;;;;;;5042297;28;20065;-53
2022/01/25 08:39:51;;;;;;;288.77;115.25;;;2.10;79.10;;;;;;5053282;28;20025;-53
2022/01/25 08:42:17;;;;;;;282.65;115.05;;;2.80;77.90;;;;;;5039600;28;20040;-53
2022/01/25 08:44:43;;;;;;;287.80;118.88;;;2.20;73.00;;;;;;5039811;28;20322;-53
2022/01/25 08:47:09;;;;;;;292.98;119.28;;;1.70;83.70;;;;;;5046703;28;20033;-55
2022/01/25 08:49:36;;;;;;;274.17;115.78;;;2.20;83.10;;;;;;5053356;28;20029;-56
2022/01/25 08:52:03;;;;;;;302.38;116.40;;;2.90;70.70;;;;;;5053787;28;20020;-54
2022/01/25 08:54:29;;;;;;;281.02;113.57;;;2.80;75.20;;;;;;5053973;28;20144;-54
2022/01/25 08:56:56;;;;;;;320.45;116.57;;;3.30;66.80;;;;;;5054823;28;20068;-54
2022/01/25 08:59:23;;;;;;;315.98;127.10;;;3.70;63.90;;;;;;5054175;28;20033;-54
2022/01/25 09:01:49;;;;;;;254.68;108.65;;;3.60;70.50;;;;;;5053918;28;20485;-54
2022/01/25 09:04:16;;;;;;;306.33;102.80;;;4.20;63.60;;;;;;5054874;28;20033;-56
2022/01/25 09:06:42;;;;;;;221.88;95.50;;;4.40;62.40;;;;;;5036942;28;20029;-54
2022/01/25 09:09:10;;;;;;;250.57;99.97;;;4.10;58.50;;;;;;5054289;28;20059;-54
2022/01/25 09:11:37;;;;;;;255.65;105.57;;;4.30;58.40;;;;;;5054111;28;20055;-54
2022/01/25 09:14:04;;;;;;;196.05;92.00;;;5.20;55.30;;;;;;5039738;28;20021;-54
2022/01/25 09:16:32;;;;;;;251.48;97.22;;;4.60;55.00;;;;;;5055117;28;20475;-54
2022/01/25 09:18:58;;;;;;;224.63;96.03;;;4.90;54.70;;;;;;5054488;28;20029;-56
2022/01/25 09:21:25;;;;;;;246.32;93.18;;;4.50;54.80;;;;;;5054609;28;20151;-55
2022/01/25 09:23:51;;;;;;;198.73;88.38;;;5.70;54.40;;;;;;5055020;28;20021;-55
2022/01/25 09:26:17;;;;;;;210.77;89.25;;;6.00;50.30;;;;;;5053695;28;20032;-55
2022/01/25 09:28:44;;;;;;;188.82;85.18;;;6.20;49.30;;;;;;5052489;28;20033;-55
2022/01/25 09:31:10;;;;;;;198.82;84.68;;;6.20;49.80;;;;;;5053024;28;20488;-56
2022/01/25 09:33:36;;;;;;;194.40;88.13;;;6.90;48.90;;;;;;5053187;28;20026;-55
2022/01/25 09:36:02;;;;;;;178.25;85.75;;;5.80;47.90;;;;;;5052646;28;20037;-56
2022/01/25 09:38:28;;;;;;;173.77;83.00;;;5.80;50.20;;;;;;5052964;28;20032;-55
2022/01/25 09:40:54;;;;;;;197.15;88.63;;;5.30;51.80;;;;;;5054047;28;20048;-55
2022/01/25 09:43:23;;;;;;;224.40;96.45;;;6.00;50.00;;;;;;5053890;28;20116;-55
2022/01/25 09:45:49;;;;;;;217.95;97.82;;;6.50;48.70;;;;;;5054250;28;20029;-54
2022/01/25 09:48:16;;;;;;;254.98;102.60;;;6.70;47.70;;;;;;5052999;28;20036;-54
2022/01/25 09:50:42;;;;;;;216.05;103.75;;;7.30;45.00;;;;;;5055134;28;20430;-54
2022/01/25 09:53:09;;;;;;;248.55;102.60;;;6.50;43.80;;;;;;5052993;28;20033;-55
2022/01/25 09:55:39;;;;;;;227.88;101.80;;;6.50;46.40;;;;;;5033404;28;20022;-55
2022/01/25 09:58:05;;;;;;;205.75;96.45;;;6.90;45.70;;;;;;5036896;28;20033;-55
2022/01/25 10:00:34;;;;;;;223.85;99.18;;;7.40;43.60;;;;;;5033985;28;20035;-55
2022/01/25 10:05:55;;;;;;;243.27;107.97;;;6.90;42.10;;;;;;5035177;28;20438;-55
2022/01/25 10:08:25;;;;;;;222.25;96.18;;;6.00;44.90;;;;;;5053939;28;20025;-55
2022/01/25 10:10:54;;;;;;;239.38;101.15;;;6.90;44.20;;;;;;5037565;28;20025;-56
2022/01/25 10:13:24;;;;;;;226.20;103.65;;;7.70;41.20;;;;;;5041517;28;20447;-55
2022/01/25 10:16:10;;;;;;;190.95;93.32;;;7.50;40.80;;;;;;5048342;28;20021;-55
2022/01/25 10:18:53;;;;;;;205.88;97.47;;;8.30;39.20;;;;;;5065707;28;20041;-55
2022/01/25 10:21:24;;;;;;;238.48;114.80;;;8.70;37.90;;;;;;5043802;28;20040;-55
2022/01/25 10:24:10;;;;;;;279.48;109.82;;;8.60;37.90;;;;;;5036838;28;20033;-55
2022/01/25 10:51:50;;;;;;;163.35;74.43;;;7.80;35.10;;;;;;5156940;27;20428;-53
2022/01/25 10:54:21;;;;;;;147.68;67.72;;;7.30;36.00;;;;;;5153603;27;20580;-53
2022/01/25 10:56:59;;;;;;;180.93;79.63;;;7.20;36.20;;;;;;5152753;27;20015;-52
2022/01/25 10:59:32;;;;;;;180.82;84.15;;;7.90;36.00;;;;;;5151218;27;20038;-52
2022/01/25 11:02:07;;;;;;;172.05;82.72;;;7.80;36.70;;;;;;5145319;27;20019;-53
2022/01/25 11:04:39;;;;;;;199.93;82.88;;;8.50;36.50;;;;;;5148232;27;20019;-53
2022/01/25 11:07:10;;;;;;;164.00;80.47;;;8.00;35.80;;;;;;5153062;27;20011;-53
2022/01/25 11:09:43;;;;;;;164.32;79.65;;;8.70;35.50;;;;;;5151690;27;20448;-53
2022/01/25 11:12:14;;;;;;;180.70;78.15;;;8.70;33.80;;;;;;5148649;27;20095;-52
2022/01/25 11:14:50;;;;;;;156.45;75.40;;;8.70;34.20;;;;;;5151909;27;20040;-53
2022/01/25 11:17:21;;;;;;;183.27;80.07;;;8.90;34.00;;;;;;5152209;27;20062;-53
2022/01/25 11:19:48;;;;;;;194.15;80.40;;;8.90;33.80;;;;;;5149980;27;20034;-52
2022/01/25 11:22:19;;;;;;;163.13;77.43;;;8.60;34.00;;;;;;5150907;27;20041;-52
2022/01/25 11:24:51;;;;;;;155.45;78.38;;;9.40;34.30;;;;;;5145190;27;20027;-53
2022/01/25 11:27:19;;;;;;;193.95;76.32;;;10.10;33.50;;;;;;5141190;27;20472;-52
2022/01/25 11:29:47;;;;;;;159.98;75.00;;;10.40;32.80;;;;;;5142295;27;20048;-53
2022/01/25 11:32:20;;;;;;;161.75;74.13;;;10.20;31.60;;;;;;5144281;27;20075;-53
2022/01/25 11:34:48;;;;;;;118.35;54.70;;;10.70;31.30;;;;;;5138177;27;20392;-53
2022/01/25 11:37:14;;;;;;;121.10;50.83;;;9.50;30.50;;;;;;5139815;27;20730;-52
2022/01/25 11:39:49;;;;;;;100.28;47.35;;;10.20;31.30;;;;;;5142395;27;20031;-53
2022/01/25 11:42:24;;;;;;;115.00;50.58;;;10.20;30.20;;;;;;5152960;27;20107;-53
2022/01/25 11:44:58;;;;;;;126.43;56.45;;;9.50;30.00;;;;;;5142433;27;20101;-53
2022/01/25 11:47:31;;;;;;;113.45;56.72;;;9.10;31.50;;;;;;5140502;27;20396;-53
2022/01/25 11:50:04;;;;;;;110.43;53.05;;;8.70;32.70;;;;;;5142421;27;20065;-52
2022/01/25 11:52:32;;;;;;;98.20;48.80;;;8.90;33.50;;;;;;5122104;27;20038;-52
2022/01/25 11:55:16;;;;;;;94.00;40.42;;;9.60;32.60;;;;;;5128259;27;20051;-52
2022/01/25 11:58:00;;;;;;;112.18;41.10;;;9.10;31.50;;;;;;5121057;27;20039;-53
2022/01/25 12:00:46;;;;;;;85.95;37.50;;;9.30;30.30;;;;;;5130690;27;20038;-53
2022/01/25 12:03:26;;;;;;;72.00;36.92;;;9.30;30.20;;;;;;5125054;27;20102;-53
2022/01/25 12:06:08;;;;;;;100.13;40.10;;;8.70;30.30;;;;;;5127250;27;20050;-53
2022/01/25 12:09:06;;;;;;;75.95;36.30;;;8.60;31.30;;;;;;5117432;27;20072;-52
2022/01/25 12:11:50;;;;;;;106.78;42.25;;;9.10;31.00;;;;;;5126791;27;20120;-52
2022/01/25 12:14:18;;;;;;;91.10;42.50;;;9.20;30.50;;;;;;5121393;27;20015;-53
2022/01/25 12:17:02;;;;;;;93.63;42.78;;;9.00;31.00;;;;;;5129256;27;20023;-53
2022/01/25 12:19:45;;;;;;;89.47;40.83;;;9.50;31.20;;;;;;5138031;27;20023;-52
2022/01/25 12:22:38;;;;;;;107.70;43.92;;;9.40;29.40;;;;;;5133840;27;20052;-52
2022/01/25 12:25:38;;;;;;;111.13;45.47;;;9.00;29.50;;;;;;5131001;27;20031;-52
2022/01/25 12:28:10;;;;;;;99.72;45.30;;;9.20;30.50;;;;;;5130687;27;20028;-52
2022/01/25 12:30:39;;;;;;;83.18;40.50;;;7.90;31.10;;;;;;5131876;27;20027;-53
2022/01/25 12:33:23;;;;;;;115.78;43.97;;;8.50;31.50;;;;;;5136460;27;20033;-52
2022/01/25 12:36:02;;;;;;;90.07;41.10;;;8.10;32.20;;;;;;5133646;27;20035;-53
2022/01/25 12:38:49;;;;;;;85.15;38.35;;;9.10;32.40;;;;;;5136260;27;20027;-52
2022/01/25 12:41:31;;;;;;;72.95;35.10;;;8.40;30.80;;;;;;5130922;27;20475;-52
2022/01/25 12:44:05;;;;;;;79.38;33.72;;;8.60;31.10;;;;;;5131878;27;20426;-52
2022/01/25 12:46:39;;;;;;;85.20;36.90;;;8.40;30.00;;;;;;5135174;27;20102;-52
2022/01/25 12:49:13;;;;;;;67.85;34.67;;;8.20;30.80;;;;;;5126955;27;20046;-52
2022/01/25 12:51:50;;;;;;;82.38;36.53;;;8.30;30.40;;;;;;5122678;27;20480;-52
2022/01/25 12:54:17;;;;;;;70.13;33.50;;;7.90;30.60;;;;;;5133935;27;20015;-52
2022/01/25 12:56:46;;;;;;;57.13;30.35;;;8.40;30.90;;;;;;5132979;27;20063;-52
2022/01/25 12:59:22;;;;;;;86.55;34.78;;;8.60;30.50;;;;;;5136991;27;20468;-52
2022/01/25 13:01:50;;;;;;;93.88;37.53;;;9.00;30.50;;;;;;5132055;27;20107;-52
2022/01/25 13:04:17;;;;;;;87.32;35.97;;;8.90;30.00;;;;;;5115751;27;20034;-52
2022/01/25 13:06:50;;;;;;;69.57;34.38;;;8.40;29.10;;;;;;5124241;27;20064;-52
2022/01/25 13:09:25;;;;;;;71.15;37.58;;;8.10;28.50;;;;;;5137064;27;20038;-52
2022/01/25 13:14:46;;;;;;;76.50;38.42;;;8.00;29.60;;;;;;5130748;27;20460;-52
2022/01/25 13:17:13;;;;;;;97.88;40.83;;;7.80;29.20;;;;;;5123039;27;20045;-52
2022/01/25 13:19:53;;;;;;;83.95;37.83;;;8.20;29.30;;;;;;5133742;27;20071;-52
2022/01/25 13:22:33;;;;;;;99.60;39.20;;;8.20;28.80;;;;;;5137277;27;20031;-53
2022/01/25 13:25:31;;;;;;;74.35;36.13;;;8.40;28.80;;;;;;5137020;27;20019;-52
2022/01/25 13:28:00;;;;;;;92.40;44.72;;;8.80;28.60;;;;;;5118834;27;20030;-52
2022/01/25 13:30:41;;;;;;;64.18;33.13;;;9.60;28.60;;;;;;5136225;27;20027;-52
2022/01/25 13:33:08;;;;;;;;;;;9.80;28.10;;;;;;5137664;27;20031;-52
2022/01/25 13:35:37;;;;;;;72.40;28.08;;;9.50;27.40;;;;;;5124545;27;19939;-52
2022/01/25 13:38:18;;;;;;;55.60;26.58;;;9.60;27.00;;;;;;5122945;27;20024;-52
2022/01/25 13:40:58;;;;;;;60.90;27.98;;;10.00;26.90;;;;;;5126148;27;20039;-52
2022/01/25 13:46:23;;;;;;;65.75;29.48;;;9.50;26.90;;;;;;5124136;27;20073;-52
2022/01/25 13:48:54;;;;;;;54.72;27.70;;;9.40;26.90;;;;;;5135468;27;20027;-52
2022/01/25 13:51:26;;;;;;;66.28;29.13;;;9.70;27.30;;;;;;5135567;27;20051;-52
2022/01/25 13:53:58;;;;;;;73.82;30.80;;;9.90;27.10;;;;;;5127298;27;20427;-52
2022/01/25 13:56:27;;;;;;;61.47;30.30;;;9.60;26.80;;;;;;5136689;27;20023;-52
2022/01/25 13:58:54;;;;;;;73.53;31.80;;;9.20;26.80;;;;;;5135488;27;20356;-52
2022/01/25 14:01:22;;;;;;;88.35;32.20;;;8.60;27.50;;;;;;5134719;27;20031;-52
2022/01/25 14:04:00;;;;;;;60.92;29.85;;;8.90;28.20;;;;;;5134636;27;20103;-52
2022/01/25 14:06:39;;;;;;;59.22;29.50;;;8.20;27.90;;;;;;5127673;27;20094;-52
2022/01/25 14:09:19;;;;;;;63.38;28.00;;;7.60;28.50;;;;;;5134564;27;20357;-52
2022/01/25 14:22:48;;;;;;;76.88;29.88;;;8.60;29.00;;;;;;5136089;27;20035;-52
2022/01/25 14:25:46;;;;;;;84.75;28.85;;;8.20;28.30;;;;;;5129549;27;20039;-52
2022/01/25 14:28:17;;;;;;;73.03;27.60;;;8.10;28.20;;;;;;5133887;27;20053;-52
2022/01/25 14:30:49;;;;;;;45.33;23.05;;;7.90;27.90;;;;;;5135254;27;20057;-52
2022/01/25 14:33:17;;;;;;;52.67;24.88;;;8.00;27.10;;;;;;5135305;27;20114;-52
2022/01/25 14:36:04;;;;;;;48.33;22.70;;;8.00;26.90;;;;;;5135695;27;20054;-52
2022/01/25 14:38:39;;;;;;;85.78;28.58;;;8.00;27.30;;;;;;5135156;27;20379;-52
2022/01/25 14:41:08;;;;;;;43.80;21.40;;;8.00;27.30;;;;;;5135270;27;20146;-52
2022/01/25 14:43:49;;;;;;;54.97;21.90;;;8.10;27.40;;;;;;5135496;27;20269;-52
2022/01/25 14:46:28;;;;;;;48.58;21.77;;;7.90;27.00;;;;;;5135265;27;20076;-52
2022/01/25 14:49:22;;;;;;;50.35;22.88;;;7.80;27.40;;;;;;5135073;27;20047;-52
2022/01/25 14:52:00;;;;;;;73.03;27.40;;;7.50;27.60;;;;;;5135133;27;20472;-52
2022/01/25 14:54:34;;;;;;;77.32;26.05;;;6.70;28.40;;;;;;5135266;27;20111;-52